Time;durP1;ratioP1;P1;durP2;ratioP2;P2;SDS_P1;SDS_P2;PMS_P1;PMS_P2;Temp;Humidity;BMP_temperature;BMP_pressure;BME280_temperature;BME280_humidity;BME280_pressure;Samples;Min_cycle;Max_cycle;Signal;HPM_P1;HPM_P2
2022/04/30 00:00:16;;;;;;;6.95;5.85;;;6.60;99.90;;;;;;5070791;28;20052;-77
2022/04/30 00:02:43;;;;;;;10.00;6.50;;;6.50;99.90;;;;;;5069940;28;20048;-77
2022/04/30 00:05:12;;;;;;;7.35;6.13;;;6.50;99.90;;;;;;5070815;28;20051;-77
2022/04/30 00:07:40;;;;;;;7.15;6.03;;;6.40;99.90;;;;;;5069421;28;20044;-77
2022/04/30 00:10:09;;;;;;;8.38;4.53;;;6.40;99.90;;;;;;5070216;28;20053;-77
2022/04/30 00:12:36;;;;;;;6.00;5.45;;;6.40;99.90;;;;;;5070673;28;20499;-77
2022/04/30 00:15:05;;;;;;;8.05;5.80;;;6.40;99.90;;;;;;5068989;28;20052;-77
2022/04/30 00:17:32;;;;;;;5.57;5.07;;;6.40;99.90;;;;;;5069689;28;20044;-77
2022/04/30 00:23:33;;;;;;;4.65;4.25;;;6.30;99.90;;;;;;5593523;23;20050;-78
2022/04/30 00:26:03;;;;;;;6.60;5.95;;;6.00;99.90;;;;;;4999880;28;20042;-78
2022/04/30 00:28:31;;;;;;;6.88;5.18;;;6.00;99.90;;;;;;5028735;28;20061;-78
2022/04/30 00:31:00;;;;;;;9.45;6.40;;;6.00;99.90;;;;;;5029583;28;20052;-78
2022/04/30 00:33:27;;;;;;;7.80;7.05;;;6.00;99.90;;;;;;5028707;28;20060;-78
2022/04/30 00:35:56;;;;;;;9.10;7.78;;;6.00;99.90;;;;;;5029776;28;20057;-78
2022/04/30 00:38:23;;;;;;;6.28;5.72;;;6.00;99.90;;;;;;5029425;28;20045;-78
2022/04/30 00:40:51;;;;;;;9.65;7.15;;;5.90;99.90;;;;;;5029233;28;20053;-78
2022/04/30 00:43:20;;;;;;;8.63;7.13;;;5.90;99.90;;;;;;5030042;28;20053;-78
2022/04/30 00:45:48;;;;;;;11.00;8.02;;;6.00;99.90;;;;;;5029599;28;20068;-78
2022/04/30 00:48:16;;;;;;;9.63;6.15;;;6.10;99.90;;;;;;5028548;28;20056;-78
2022/04/30 00:50:44;;;;;;;9.00;5.70;;;6.10;99.90;;;;;;5020457;28;20041;-78
2022/04/30 00:53:15;;;;;;;7.68;6.78;;;6.20;99.90;;;;;;5010488;28;20057;-78
2022/04/30 00:55:44;;;;;;;11.95;9.15;;;6.20;99.90;;;;;;5008584;28;20054;-78
2022/04/30 00:58:16;;;;;;;7.85;7.15;;;6.20;99.90;;;;;;5009469;28;20038;-78
2022/04/30 01:00:45;;;;;;;;;;;6.20;99.90;;;;;;5009640;28;20524;-78
2022/04/30 01:03:24;;;;;;;15.65;7.97;;;6.20;99.90;;;;;;5008345;28;19925;-78
2022/04/30 01:06:05;;;;;;;8.18;6.13;;;6.20;99.90;;;;;;5007913;28;20050;-78
2022/04/30 01:08:33;;;;;;;5.38;4.82;;;6.10;99.90;;;;;;5008956;28;20049;-78
2022/04/30 01:11:03;;;;;;;11.73;7.95;;;5.80;99.90;;;;;;5008282;28;20072;-78
2022/04/30 01:13:36;;;;;;;8.35;7.38;;;5.80;99.90;;;;;;5008553;28;20495;-78
2022/04/30 01:16:06;;;;;;;5.45;4.90;;;5.80;99.90;;;;;;5008932;28;20050;-78
2022/04/30 01:18:35;;;;;;;7.38;6.53;;;5.90;99.90;;;;;;5009889;28;20046;-78
2022/04/30 01:21:10;;;;;;;7.82;7.05;;;5.90;99.90;;;;;;4998506;28;20061;-78
2022/04/30 01:23:41;;;;;;;6.18;5.65;;;5.90;99.90;;;;;;4999333;28;20054;-78
2022/04/30 01:26:10;;;;;;;8.48;6.75;;;6.00;99.90;;;;;;5009382;28;20430;-78
2022/04/30 01:28:40;;;;;;;5.32;4.85;;;6.10;99.90;;;;;;5009926;28;20050;-78
2022/04/30 01:37:22;;;;;;;6.90;5.78;;;6.10;99.90;;;;;;4991973;28;20674;-78
2022/04/30 01:39:32;;;;;;;8.77;8.02;;;6.00;99.90;;;;;;5009349;28;20501;-78
2022/04/30 01:42:11;;;;;;;8.57;7.78;;;5.90;99.90;;;;;;5009794;28;20045;-78
2022/04/30 01:44:46;;;;;;;24.73;8.48;;;5.60;99.90;;;;;;5010401;28;20496;-78
2022/04/30 01:47:15;;;;;;;9.27;6.60;;;5.60;99.90;;;;;;5009183;28;20038;-78
2022/04/30 01:49:43;;;;;;;7.55;6.88;;;5.50;99.90;;;;;;5010762;28;20401;-78
2022/04/30 01:52:13;;;;;;;8.90;7.82;;;5.50;99.90;;;;;;5020679;28;20058;-78
2022/04/30 01:54:42;;;;;;;8.65;6.40;;;5.50;99.90;;;;;;5010463;28;20058;-78
2022/04/30 01:57:10;;;;;;;9.50;7.72;;;5.50;99.90;;;;;;5011466;28;20259;-78
2022/04/30 01:59:38;;;;;;;8.32;7.15;;;5.40;99.90;;;;;;5011772;28;20046;-78
2022/04/30 02:02:06;;;;;;;9.55;6.90;;;5.50;99.90;;;;;;5032424;28;20038;-78
2022/04/30 02:04:35;;;;;;;10.18;7.72;;;5.50;99.90;;;;;;5033273;28;20400;-78
2022/04/30 02:07:03;;;;;;;7.57;6.63;;;5.50;99.90;;;;;;5031707;28;20053;-78
2022/04/30 02:09:32;;;;;;;9.80;8.48;;;5.50;99.90;;;;;;5032467;28;20049;-78
2022/04/30 02:12:01;;;;;;;16.90;8.88;;;5.40;99.90;;;;;;5032640;28;20119;-78
2022/04/30 02:14:30;;;;;;;11.35;7.25;;;5.40;99.90;;;;;;5031716;28;20049;-78
2022/04/30 02:17:02;;;;;;;9.70;7.85;;;5.40;99.90;;;;;;5015088;28;20053;-78
2022/04/30 02:20:18;;;;;;;6.38;5.32;;;5.30;99.90;;;;;;5014371;28;20037;-77
2022/04/30 02:22:18;;;;;;;10.70;7.57;;;5.10;99.90;;;;;;5031430;28;20042;-78
2022/04/30 02:24:47;;;;;;;14.05;9.18;;;5.20;99.90;;;;;;5032703;28;20049;-78
2022/04/30 02:27:15;;;;;;;11.00;8.93;;;5.20;99.90;;;;;;5032085;28;20396;-78
2022/04/30 02:29:44;;;;;;;12.95;8.95;;;5.30;99.90;;;;;;5032052;28;20046;-78
2022/04/30 02:32:12;;;;;;;9.10;8.25;;;5.40;99.90;;;;;;5017806;28;20049;-78
2022/04/30 02:34:39;;;;;;;9.45;7.78;;;5.30;99.90;;;;;;5012233;28;20058;-78
2022/04/30 02:37:08;;;;;;;7.85;6.88;;;5.20;99.90;;;;;;5011764;28;20052;-78
2022/04/30 02:39:36;;;;;;;10.25;7.80;;;5.20;99.90;;;;;;5010337;28;20049;-78
2022/04/30 02:42:04;;;;;;;8.55;7.53;;;5.20;99.90;;;;;;4994678;28;20037;-78
2022/04/30 02:44:32;;;;;;;11.57;9.90;;;5.30;99.90;;;;;;4995070;28;20072;-78
2022/04/30 02:47:00;;;;;;;9.18;8.23;;;5.30;99.90;;;;;;5012000;28;20050;-78
2022/04/30 02:49:27;;;;;;;11.27;9.05;;;5.40;99.90;;;;;;5011857;28;20052;-78
2022/04/30 02:51:55;;;;;;;13.70;10.63;;;5.30;99.90;;;;;;5029653;28;20049;-78
2022/04/30 02:54:22;;;;;;;12.80;8.88;;;5.30;99.90;;;;;;5014427;28;20057;-78
2022/04/30 02:56:50;;;;;;;12.23;8.23;;;5.30;99.90;;;;;;5014257;28;20689;-78
2022/04/30 03:02:11;;;;;;;9.23;7.90;;;5.40;99.90;;;;;;5013456;28;20041;-78
2022/04/30 03:04:51;;;;;;;16.73;9.40;;;5.40;99.90;;;;;;5014264;28;20054;-78
2022/04/30 03:07:22;;;;;;;16.05;10.38;;;5.50;99.90;;;;;;5030614;28;20045;-78
2022/04/30 03:09:50;;;;;;;;;;;5.40;99.90;;;;;;5013668;28;20628;-78
2022/04/30 03:12:18;;;;;;;13.43;9.55;;;5.40;99.90;;;;;;5031636;28;19932;-78
2022/04/30 03:14:45;;;;;;;21.02;9.55;;;5.20;99.90;;;;;;5031140;28;20799;-78
2022/04/30 03:22:47;;;;;;;10.48;8.05;;;5.30;99.90;;;;;;5010458;28;20409;-78
2022/04/30 03:25:16;;;;;;;11.07;9.88;;;5.30;99.90;;;;;;4994081;28;20050;-79
2022/04/30 03:27:44;;;;;;;11.32;7.20;;;5.00;99.90;;;;;;5011008;28;20056;-77
2022/04/30 03:30:13;;;;;;;8.55;7.72;;;4.90;99.90;;;;;;5010027;28;20037;-78
2022/04/30 03:32:42;;;;;;;14.43;8.93;;;4.90;99.90;;;;;;4994213;28;20585;-78
2022/04/30 03:35:32;;;;;;;10.00;8.75;;;4.90;99.90;;;;;;4993408;28;20038;-78
2022/04/30 03:38:57;;;;;;;10.73;9.65;;;4.90;99.90;;;;;;5009462;28;20062;-78
2022/04/30 03:42:17;;;;;;;11.40;9.55;;;4.80;99.90;;;;;;4992042;28;20049;-78
2022/04/30 03:45:41;;;;;;;17.38;10.27;;;4.90;99.90;;;;;;5011771;28;20046;-78
2022/04/30 03:48:28;;;;;;;10.00;8.80;;;4.90;99.90;;;;;;4963782;28;20050;-78
2022/04/30 03:50:57;;;;;;;11.13;8.85;;;4.90;99.90;;;;;;4996177;28;20057;-78
2022/04/30 03:53:44;;;;;;;14.38;9.90;;;4.90;99.90;;;;;;5027146;28;20038;-78
2022/04/30 03:57:04;;;;;;;10.38;9.15;;;5.00;99.90;;;;;;5005802;28;20429;-78
2022/04/30 04:00:29;;;;;;;12.05;9.88;;;5.20;99.90;;;;;;4985773;28;20045;-78
2022/04/30 04:03:50;;;;;;;9.82;8.13;;;5.10;99.90;;;;;;5021486;28;20041;-78
2022/04/30 04:07:10;;;;;;;12.90;11.23;;;5.10;99.90;;;;;;5025631;28;20044;-78
2022/04/30 04:10:29;;;;;;;;;;;5.20;99.90;;;;;;5014319;28;20050;-78
2022/04/30 04:19:00;;;;;;;23.48;13.70;;;5.20;99.90;;;;;;5011914;28;20049;-78
2022/04/30 04:21:27;;;;;;;11.02;9.95;;;5.20;99.90;;;;;;5011639;28;20041;-78
2022/04/30 04:26:41;;;;;;;18.77;11.00;;;5.30;99.90;;;;;;5001063;28;20041;-78
2022/04/30 04:29:10;;;;;;;14.20;12.20;;;5.30;99.90;;;;;;5030513;28;20053;-78
2022/04/30 04:31:38;;;;;;;17.33;10.60;;;5.20;99.90;;;;;;5019689;28;20049;-78
2022/04/30 04:34:06;;;;;;;11.65;10.55;;;5.20;99.90;;;;;;5009174;28;20045;-78
2022/04/30 04:36:33;;;;;;;11.10;10.00;;;5.00;99.90;;;;;;5010085;28;20054;-78
2022/04/30 04:39:01;;;;;;;24.00;11.75;;;5.00;99.90;;;;;;5010073;28;20072;-78
2022/04/30 04:41:29;;;;;;;11.80;9.93;;;5.20;99.90;;;;;;5010046;28;20046;-78
2022/04/30 04:43:56;;;;;;;12.52;11.13;;;5.20;99.90;;;;;;4992911;28;20053;-78
2022/04/30 04:46:24;;;;;;;12.05;10.30;;;5.40;99.90;;;;;;5009839;28;20053;-78
2022/04/30 04:48:52;;;;;;;11.48;10.10;;;5.50;99.90;;;;;;4992565;28;20375;-78
2022/04/30 04:51:21;;;;;;;14.82;11.07;;;5.60;99.90;;;;;;5016687;28;20042;-77
2022/04/30 04:53:48;;;;;;;12.70;11.05;;;5.60;99.90;;;;;;5027685;28;20758;-78
2022/04/30 04:56:16;;;;;;;10.85;9.68;;;5.70;99.90;;;;;;5029910;28;20057;-78
2022/04/30 04:58:44;;;;;;;12.68;11.45;;;5.80;99.90;;;;;;5028848;28;20057;-78
2022/04/30 05:01:12;;;;;;;12.43;10.00;;;5.90;99.90;;;;;;5048545;28;20049;-78
2022/04/30 05:03:39;;;;;;;14.07;12.10;;;6.00;99.90;;;;;;5021129;28;20053;-78
2022/04/30 05:06:07;;;;;;;10.48;9.63;;;6.00;99.90;;;;;;5009029;28;20049;-78
2022/04/30 05:08:35;;;;;;;13.02;10.30;;;6.20;99.90;;;;;;5010161;28;20057;-78
2022/04/30 05:11:40;;;;;;;23.55;11.90;;;6.30;99.90;;;;;;5513137;23;20055;-84
2022/04/30 05:14:08;;;;;;;14.88;9.63;;;6.50;99.90;;;;;;4990110;28;20038;-78
2022/04/30 05:16:36;;;;;;;15.93;10.98;;;6.80;99.90;;;;;;5010011;28;20062;-78
2022/04/30 05:19:05;;;;;;;15.43;12.38;;;7.00;99.90;;;;;;5009563;28;20057;-78
2022/04/30 05:21:33;;;;;;;17.20;11.50;;;7.10;99.90;;;;;;5008631;28;20050;-78
2022/04/30 05:24:01;;;;;;;14.75;13.30;;;7.20;99.90;;;;;;4987569;28;20053;-79
2022/04/30 05:26:29;;;;;;;13.63;10.77;;;7.30;99.90;;;;;;4995199;28;20042;-78
2022/04/30 05:28:57;;;;;;;14.57;10.93;;;7.50;99.90;;;;;;5003518;28;20038;-78
2022/04/30 05:31:24;;;;;;;14.85;9.80;;;7.70;99.90;;;;;;5004104;28;20038;-77
2022/04/30 05:33:52;;;;;;;17.73;13.10;;;7.70;99.90;;;;;;4995732;28;20732;-77
2022/04/30 05:36:20;;;;;;;14.95;12.70;;;7.70;99.90;;;;;;4993060;28;20059;-77
2022/04/30 05:38:51;;;;;;;13.95;12.45;;;7.70;99.90;;;;;;4999329;28;20489;-78
2022/04/30 05:41:18;;;;;;;14.10;11.07;;;7.80;99.90;;;;;;4998563;28;20042;-78
2022/04/30 05:43:52;;;;;;;16.75;11.40;;;8.10;99.90;;;;;;5003404;28;20069;-78
2022/04/30 05:46:19;;;;;;;13.68;11.60;;;8.30;99.90;;;;;;4992539;28;20053;-77
2022/04/30 05:48:47;;;;;;;13.02;10.00;;;8.60;99.90;;;;;;5009693;28;20046;-78
2022/04/30 05:51:15;;;;;;;16.83;14.32;;;8.80;99.90;;;;;;4998656;28;20049;-78
2022/04/30 05:53:43;;;;;;;12.25;10.88;;;9.10;99.90;;;;;;4996051;28;20042;-77
2022/04/30 05:56:10;;;;;;;15.68;13.68;;;9.30;99.90;;;;;;4977036;28;20042;-78
2022/04/30 05:58:38;;;;;;;11.68;10.52;;;9.80;99.90;;;;;;4994400;28;20049;-80
2022/04/30 06:01:06;;;;;;;13.48;12.05;;;10.00;99.90;;;;;;4995163;28;20062;-79
2022/04/30 06:03:34;;;;;;;11.90;10.68;;;10.10;99.90;;;;;;5002748;28;20523;-79
2022/04/30 06:06:03;;;;;;;13.80;11.27;;;10.10;99.90;;;;;;4993384;28;20046;-78
2022/04/30 06:08:31;;;;;;;15.20;11.00;;;10.20;99.90;;;;;;5001958;28;20045;-79
2022/04/30 06:11:00;;;;;;;11.38;10.05;;;10.40;99.90;;;;;;4977815;28;20054;-79
2022/04/30 06:13:28;;;;;;;12.40;10.18;;;10.40;99.90;;;;;;4964793;28;20059;-80
2022/04/30 06:15:55;;;;;;;13.88;11.88;;;10.20;99.90;;;;;;4969093;28;20501;-81
2022/04/30 06:18:25;;;;;;;11.93;10.43;;;9.90;99.90;;;;;;4963009;28;20414;-80
2022/04/30 06:20:52;;;;;;;15.38;11.85;;;9.60;99.90;;;;;;4959846;28;20054;-80
2022/04/30 06:23:20;;;;;;;10.38;9.45;;;9.40;99.90;;;;;;4959735;28;20041;-82
2022/04/30 06:25:48;;;;;;;19.77;12.57;;;9.40;99.90;;;;;;4962499;28;20046;-81
2022/04/30 06:28:16;;;;;;;15.93;13.45;;;9.50;99.90;;;;;;4962490;28;20062;-81
2022/04/30 06:30:44;;;;;;;12.75;10.15;;;9.50;99.90;;;;;;4962729;28;20058;-81
2022/04/30 06:33:11;;;;;;;17.25;10.88;;;9.40;99.90;;;;;;4963426;28;20439;-80
2022/04/30 06:35:39;;;;;;;14.57;12.52;;;9.40;99.90;;;;;;4959463;28;20426;-80
2022/04/30 06:38:08;;;;;;;12.00;10.85;;;9.50;99.90;;;;;;4966304;28;20065;-80
2022/04/30 06:40:37;;;;;;;16.58;13.57;;;9.40;99.90;;;;;;4945327;28;20051;-82
2022/04/30 06:43:05;;;;;;;14.07;10.52;;;9.40;99.90;;;;;;4952427;28;20040;-82
2022/04/30 06:45:35;;;;;;;12.73;9.63;;;9.40;99.90;;;;;;4971544;28;20043;-82
2022/04/30 06:48:04;;;;;;;14.52;11.20;;;9.50;99.90;;;;;;4965184;28;20506;-82
2022/04/30 06:50:32;;;;;;;14.15;11.60;;;9.60;99.90;;;;;;4943287;28;20054;-83
2022/04/30 06:58:54;;;;;;;12.05;10.82;;;10.70;99.90;;;;;;4902928;28;20526;-82
2022/04/30 07:01:28;;;;;;;10.63;9.30;;;12.30;99.90;;;;;;4972934;28;20039;-83
2022/04/30 07:04:02;;;;;;;12.02;10.23;;;13.20;99.90;;;;;;4937367;29;20047;-84
2022/04/30 07:06:30;;;;;;;11.05;9.18;;;13.50;99.90;;;;;;4935470;29;20070;-81
2022/04/30 07:08:58;;;;;;;8.85;7.68;;;13.80;99.90;;;;;;4970521;28;20050;-83
2022/04/30 07:11:30;;;;;;;9.48;7.07;;;14.60;99.90;;;;;;4955230;28;20055;-81
2022/04/30 07:13:58;;;;;;;8.20;7.53;;;15.70;99.90;;;;;;5001682;28;20045;-81
2022/04/30 07:16:26;;;;;;;7.88;7.25;;;16.50;99.90;;;;;;4977486;28;20602;-79
2022/04/30 07:18:54;;;;;;;14.20;7.90;;;16.40;99.90;;;;;;4964045;28;20042;-80
2022/04/30 07:21:23;;;;;;;7.25;6.07;;;17.50;99.90;;;;;;4983537;28;20054;-82
2022/04/30 07:23:52;;;;;;;6.13;5.53;;;18.90;96.70;;;;;;4993539;28;20389;-79
2022/04/30 07:26:23;;;;;;;5.28;4.82;;;19.10;96.50;;;;;;5010814;28;20037;-78
2022/04/30 07:28:52;;;;;;;6.47;5.80;;;17.90;97.10;;;;;;4977174;28;20039;-80
2022/04/30 07:31:20;;;;;;;6.55;5.95;;;16.70;97.30;;;;;;5004982;28;20061;-81
2022/04/30 07:33:49;;;;;;;9.85;7.72;;;15.40;99.90;;;;;;5001685;28;20046;-82
2022/04/30 07:36:18;;;;;;;6.30;5.80;;;15.30;99.90;;;;;;5009420;28;20062;-80
2022/04/30 07:38:46;;;;;;;5.95;4.93;;;15.10;99.90;;;;;;4991239;28;20057;-80
2022/04/30 07:41:14;;;;;;;5.28;4.88;;;15.50;99.90;;;;;;5009768;28;20409;-81
2022/04/30 07:43:41;;;;;;;4.90;4.50;;;15.80;99.90;;;;;;5003296;28;20042;-80
2022/04/30 07:46:09;;;;;;;5.85;5.25;;;15.60;99.90;;;;;;4977218;28;20042;-80
2022/04/30 07:48:39;;;;;;;5.88;5.25;;;15.60;99.90;;;;;;4974757;28;20046;-80
2022/04/30 07:51:14;;;;;;;6.60;4.97;;;15.70;99.90;;;;;;4984243;28;20050;-81
2022/04/30 07:53:42;;;;;;;5.60;5.10;;;15.50;99.90;;;;;;4982104;28;20065;-81
2022/04/30 07:56:11;;;;;;;5.93;5.05;;;15.40;99.90;;;;;;4990403;28;20050;-83
2022/04/30 07:58:39;;;;;;;4.97;4.47;;;15.30;99.90;;;;;;4990155;28;20525;-79
2022/04/30 08:01:07;;;;;;;8.60;5.18;;;16.50;99.90;;;;;;4991431;28;20046;-81
2022/04/30 08:03:35;;;;;;;5.00;4.60;;;17.30;99.50;;;;;;4989949;28;20057;-80
2022/04/30 08:06:03;;;;;;;6.43;6.03;;;16.10;99.90;;;;;;4990226;28;20045;-80
2022/04/30 08:08:30;;;;;;;6.35;5.75;;;15.40;99.90;;;;;;4991155;28;20533;-81
2022/04/30 08:10:58;;;;;;;6.20;4.95;;;14.40;99.90;;;;;;4973389;28;20058;-80
2022/04/30 08:13:26;;;;;;;6.38;4.45;;;13.60;99.90;;;;;;4991136;28;20422;-81
2022/04/30 08:15:54;;;;;;;6.20;5.20;;;13.50;99.90;;;;;;4973114;28;20422;-78
2022/04/30 08:18:24;;;;;;;8.55;7.72;;;13.70;99.90;;;;;;4973292;28;20050;-82
2022/04/30 08:20:52;;;;;;;7.50;6.83;;;13.70;99.90;;;;;;4957311;28;20046;-80
2022/04/30 08:23:22;;;;;;;7.57;6.88;;;13.40;99.90;;;;;;4973111;28;20054;-83
2022/04/30 08:25:50;;;;;;;10.10;7.43;;;13.50;99.90;;;;;;4972830;28;20034;-83
2022/04/30 08:28:18;;;;;;;10.40;7.20;;;13.60;99.90;;;;;;4973065;28;20054;-84
2022/04/30 08:30:46;;;;;;;8.68;7.78;;;13.80;99.90;;;;;;4973276;28;20049;-82
2022/04/30 08:33:14;;;;;;;13.27;8.50;;;13.70;99.90;;;;;;4990905;28;20058;-84
2022/04/30 08:35:42;;;;;;;8.40;7.70;;;13.50;99.90;;;;;;4973028;28;20050;-80
2022/04/30 08:38:10;;;;;;;8.48;7.78;;;13.30;99.90;;;;;;4971900;28;20042;-80
2022/04/30 08:40:42;;;;;;;9.35;8.45;;;13.00;99.90;;;;;;4990948;28;20059;-83
2022/04/30 08:43:14;;;;;;;7.97;7.22;;;13.10;99.90;;;;;;4990345;28;20525;-85
2022/04/30 08:45:45;;;;;;;12.55;10.13;;;13.30;99.90;;;;;;4972934;28;20047;-77
2022/04/30 08:48:15;;;;;;;;;;;13.20;99.90;;;;;;4991111;28;20050;-81
2022/04/30 08:50:46;;;;;;;8.70;7.85;;;13.10;99.90;;;;;;4998210;28;20336;-82
2022/04/30 08:53:14;;;;;;;12.10;10.32;;;13.10;99.90;;;;;;4992723;28;20432;-81
2022/04/30 08:55:42;;;;;;;11.20;10.10;;;13.50;99.90;;;;;;4960281;28;20484;-81
2022/04/30 08:58:10;;;;;;;13.10;10.43;;;13.70;99.90;;;;;;4975797;28;20038;-82
2022/04/30 09:00:42;;;;;;;12.93;9.60;;;13.90;99.90;;;;;;4976469;28;20053;-83
2022/04/30 09:03:19;;;;;;;13.93;10.07;;;13.60;99.90;;;;;;4960328;28;20604;-83
2022/04/30 09:05:50;;;;;;;12.63;10.88;;;13.60;99.90;;;;;;4992321;28;20053;-79
2022/04/30 09:08:17;;;;;;;11.07;9.57;;;13.70;99.90;;;;;;5010207;28;20050;-80
2022/04/30 09:10:47;;;;;;;13.88;9.65;;;13.70;99.90;;;;;;4996162;28;20058;-81
2022/04/30 09:13:17;;;;;;;14.15;8.15;;;13.70;99.90;;;;;;5014280;28;20054;-81
2022/04/30 09:15:53;;;;;;;12.27;11.05;;;13.80;99.90;;;;;;4980099;28;20050;-82
2022/04/30 09:18:21;;;;;;;13.18;10.32;;;13.90;99.90;;;;;;4996275;28;20117;-83
2022/04/30 09:20:52;;;;;;;14.00;10.80;;;13.80;99.90;;;;;;4986643;28;20054;-83
2022/04/30 09:23:30;;;;;;;20.10;11.48;;;14.00;99.90;;;;;;4976589;28;20046;-81
2022/04/30 09:26:02;;;;;;;9.93;8.90;;;13.90;99.90;;;;;;4976789;28;20057;-81
2022/04/30 09:28:33;;;;;;;12.13;10.70;;;13.70;99.90;;;;;;4960892;28;20409;-83
2022/04/30 09:31:16;;;;;;;10.48;9.48;;;13.60;99.90;;;;;;4960020;28;20053;-83
2022/04/30 09:33:57;;;;;;;10.68;9.68;;;13.40;99.90;;;;;;4976146;28;20057;-80
2022/04/30 09:39:17;;;;;;;12.88;10.10;;;13.40;99.90;;;;;;4976031;28;20623;-76
2022/04/30 09:41:46;;;;;;;12.25;10.30;;;13.20;99.90;;;;;;4993597;28;20046;-82
2022/04/30 09:44:14;;;;;;;12.95;10.02;;;13.00;99.90;;;;;;4944958;28;20058;-81
2022/04/30 09:46:42;;;;;;;16.77;12.15;;;13.00;99.90;;;;;;4993676;28;20058;-80
2022/04/30 09:54:44;;;;;;;14.23;12.23;;;13.00;99.90;;;;;;4991972;28;20046;-79
2022/04/30 09:57:19;;;;;;;11.27;10.02;;;12.80;99.90;;;;;;4993786;28;20057;-80
2022/04/30 09:59:51;;;;;;;12.38;10.82;;;12.90;99.90;;;;;;4976009;28;20058;-82
2022/04/30 10:02:19;;;;;;;16.25;13.50;;;13.00;99.90;;;;;;4993327;28;20053;-79
2022/04/30 10:04:48;;;;;;;16.33;12.77;;;12.90;99.90;;;;;;4992467;28;20058;-77
2022/04/30 10:07:20;;;;;;;12.25;10.30;;;12.80;99.90;;;;;;4992717;28;20054;-81
2022/04/30 10:10:27;;;;;;;11.38;10.27;;;12.90;99.90;;;;;;4975769;28;20041;-77
2022/04/30 10:13:07;;;;;;;11.95;10.70;;;13.00;99.90;;;;;;4992276;28;20046;-76
2022/04/30 10:15:52;;;;;;;16.20;10.10;;;12.90;99.90;;;;;;4992951;28;20054;-81
2022/04/30 10:18:24;;;;;;;12.70;10.48;;;13.10;99.90;;;;;;4993109;28;20046;-77
2022/04/30 10:20:52;;;;;;;10.98;9.50;;;13.20;99.90;;;;;;4992532;28;20050;-77
2022/04/30 10:23:20;;;;;;;12.75;11.50;;;13.10;99.90;;;;;;4992866;28;20050;-77
2022/04/30 10:25:48;;;;;;;12.02;10.63;;;13.10;99.90;;;;;;4992714;28;20089;-77
2022/04/30 10:28:19;;;;;;;20.10;10.80;;;13.00;99.90;;;;;;4993156;28;20405;-79
2022/04/30 10:30:57;;;;;;;13.30;11.02;;;12.90;99.90;;;;;;4959344;28;20059;-80
2022/04/30 10:33:25;;;;;;;17.75;10.88;;;13.00;99.90;;;;;;4993358;28;20046;-78
2022/04/30 10:36:04;;;;;;;16.60;13.15;;;13.10;99.90;;;;;;4992039;28;20047;-78
2022/04/30 10:38:32;;;;;;;13.55;10.98;;;13.20;99.90;;;;;;4992430;28;20126;-80
2022/04/30 10:41:04;;;;;;;13.77;11.27;;;13.30;99.90;;;;;;4992085;28;20049;-80
2022/04/30 10:43:40;;;;;;;14.65;11.07;;;13.50;99.90;;;;;;4975205;28;20693;-76
2022/04/30 10:46:18;;;;;;;22.92;11.82;;;13.50;99.90;;;;;;4975000;28;20042;-80
2022/04/30 10:48:46;;;;;;;13.77;10.90;;;13.50;99.90;;;;;;4992727;28;20050;-79
2022/04/30 10:51:29;;;;;;;12.25;11.15;;;13.50;99.90;;;;;;5003784;28;20065;-80
2022/04/30 10:53:58;;;;;;;17.63;12.23;;;13.40;99.90;;;;;;4994278;28;20073;-78
2022/04/30 10:56:29;;;;;;;11.95;10.23;;;13.30;99.90;;;;;;5012431;28;20061;-77
2022/04/30 10:58:56;;;;;;;11.60;10.47;;;13.30;99.90;;;;;;4994266;28;20503;-78
2022/04/30 11:01:24;;;;;;;13.65;10.00;;;13.30;99.90;;;;;;5012236;28;20292;-79
2022/04/30 11:03:52;;;;;;;15.40;11.90;;;13.50;99.90;;;;;;4977757;28;20045;-81
2022/04/30 11:06:21;;;;;;;11.52;10.35;;;13.40;99.90;;;;;;4961287;28;20049;-77
2022/04/30 11:09:15;;;;;;;15.02;12.98;;;13.50;99.90;;;;;;5012059;28;20400;-78
2022/04/30 11:11:47;;;;;;;17.92;11.77;;;13.50;99.90;;;;;;5007505;28;20052;-80
2022/04/30 11:14:19;;;;;;;12.80;11.55;;;13.50;99.90;;;;;;5011865;28;20049;-79
2022/04/30 11:16:51;;;;;;;12.73;11.45;;;13.50;99.90;;;;;;4994501;28;20046;-80
2022/04/30 11:19:23;;;;;;;13.10;10.55;;;13.30;99.90;;;;;;4977637;28;20408;-78
2022/04/30 11:21:51;;;;;;;;;;;13.10;99.90;;;;;;4993275;28;20073;-77
2022/04/30 11:24:27;;;;;;;11.52;10.02;;;13.00;99.90;;;;;;4992566;28;19937;-79
2022/04/30 11:26:59;;;;;;;12.63;11.00;;;12.90;99.90;;;;;;4991956;28;20042;-78
2022/04/30 11:29:27;;;;;;;13.45;9.82;;;12.60;99.90;;;;;;4974311;28;20057;-79
2022/04/30 11:31:56;;;;;;;13.40;10.40;;;12.60;99.90;;;;;;4974689;28;20053;-81
2022/04/30 11:34:24;;;;;;;10.65;8.57;;;12.60;99.90;;;;;;4958320;28;20053;-76
2022/04/30 11:36:54;;;;;;;14.48;10.35;;;12.50;99.90;;;;;;4990162;28;20085;-76
2022/04/30 11:39:22;;;;;;;10.73;9.38;;;12.50;99.90;;;;;;4973830;28;20054;-80
2022/04/30 11:41:52;;;;;;;11.95;9.57;;;12.50;99.90;;;;;;4991711;28;20042;-80
2022/04/30 11:44:22;;;;;;;11.98;10.20;;;12.50;99.90;;;;;;4973571;28;20822;-79
2022/04/30 11:46:51;;;;;;;11.55;8.98;;;12.50;99.90;;;;;;4991431;28;20497;-79
2022/04/30 11:49:24;;;;;;;11.32;9.15;;;12.60;99.90;;;;;;4991484;28;20073;-77
2022/04/30 11:52:08;;;;;;;11.48;10.38;;;12.50;99.90;;;;;;5022556;28;20046;-78
2022/04/30 11:54:38;;;;;;;10.52;9.25;;;12.50;99.90;;;;;;4989992;28;20061;-77
2022/04/30 11:57:08;;;;;;;10.40;9.37;;;12.40;99.90;;;;;;4991915;28;20402;-76
2022/04/30 11:59:38;;;;;;;13.48;9.50;;;12.40;99.90;;;;;;4991043;28;20058;-76
2022/04/30 12:02:08;;;;;;;10.30;8.97;;;12.40;99.90;;;;;;4973766;28;20414;-75
2022/04/30 12:04:41;;;;;;;11.50;10.23;;;12.40;99.90;;;;;;4991824;28;20312;-75
2022/04/30 12:07:11;;;;;;;10.77;9.75;;;12.40;99.90;;;;;;4956941;28;20053;-77
2022/04/30 12:09:45;;;;;;;13.85;8.63;;;12.40;99.90;;;;;;4991155;28;20524;-77
2022/04/30 12:12:18;;;;;;;15.02;10.02;;;12.50;99.90;;;;;;4991179;28;20058;-78
2022/04/30 12:14:46;;;;;;;;;;;12.40;99.90;;;;;;4974254;28;20522;-76
2022/04/30 12:17:14;;;;;;;11.48;9.73;;;12.40;99.90;;;;;;4991463;28;20623;-76
2022/04/30 12:25:21;;;;;;;12.15;10.10;;;12.50;99.90;;;;;;4958072;28;20046;-76
2022/04/30 12:27:56;;;;;;;12.98;11.68;;;12.60;99.90;;;;;;4990594;28;20039;-78
2022/04/30 12:30:54;;;;;;;13.25;10.68;;;12.60;99.90;;;;;;4992634;28;20042;-76
2022/04/30 12:33:23;;;;;;;15.05;11.25;;;12.60;99.90;;;;;;5011034;28;20045;-79
2022/04/30 12:35:56;;;;;;;13.60;12.00;;;12.70;99.90;;;;;;4990637;28;20401;-77
2022/04/30 12:38:24;;;;;;;13.05;10.40;;;12.70;99.90;;;;;;4971943;28;20050;-79
2022/04/30 12:40:54;;;;;;;18.25;11.43;;;12.70;99.90;;;;;;5001745;28;20047;-77
2022/04/30 12:43:23;;;;;;;11.30;10.27;;;12.40;99.90;;;;;;4974974;28;20513;-78
2022/04/30 12:45:51;;;;;;;10.50;9.40;;;12.40;99.90;;;;;;5006449;28;20049;-77
2022/04/30 12:48:21;;;;;;;16.40;10.88;;;12.50;99.90;;;;;;4992620;28;20393;-84
2022/04/30 12:50:50;;;;;;;10.70;9.48;;;12.60;99.90;;;;;;4975626;28;20045;-81
2022/04/30 12:53:18;;;;;;;10.77;9.77;;;12.50;99.90;;;;;;4992756;28;20072;-81
2022/04/30 12:55:47;;;;;;;14.80;12.07;;;12.50;99.90;;;;;;5008765;28;20053;-85
2022/04/30 12:58:17;;;;;;;9.98;9.02;;;12.40;99.90;;;;;;5010209;28;20048;-83
2022/04/30 13:00:46;;;;;;;12.23;11.18;;;12.40;99.90;;;;;;4976389;28;20057;-88
2022/04/30 13:03:17;;;;;;;13.45;10.43;;;12.50;99.90;;;;;;4975680;28;20039;-86
2022/04/30 13:05:46;;;;;;;13.40;10.40;;;12.40;99.90;;;;;;4984273;28;20053;-84
2022/04/30 13:08:14;;;;;;;13.43;10.45;;;12.40;99.90;;;;;;4975093;28;20421;-84
2022/04/30 13:13:31;;;;;;;12.48;10.52;;;12.10;99.90;;;;;;4982258;28;20061;-84
2022/04/30 13:16:04;;;;;;;;;;;12.00;99.90;;;;;;4977319;28;20497;-84
2022/04/30 13:18:33;;;;;;;9.43;8.45;;;11.80;99.90;;;;;;5008031;28;20046;-81
2022/04/30 13:21:03;;;;;;;12.40;9.73;;;11.70;99.90;;;;;;4958618;28;20504;-88
2022/04/30 13:23:37;;;;;;;26.48;12.57;;;11.60;99.90;;;;;;4992342;28;20057;-86
2022/04/30 13:26:11;;;;;;;9.82;8.82;;;11.60;99.90;;;;;;4988847;28;20045;-89
2022/04/30 13:28:40;;;;;;;15.63;10.57;;;11.60;99.90;;;;;;4957493;28;20053;-87
2022/04/30 13:31:08;;;;;;;9.80;7.40;;;11.60;99.90;;;;;;4991581;28;20053;-83
2022/04/30 13:33:37;;;;;;;10.13;8.70;;;11.50;99.90;;;;;;4975949;28;20050;-84
2022/04/30 13:36:05;;;;;;;11.32;9.13;;;11.50;99.90;;;;;;4977531;28;20909;-82
2022/04/30 13:38:33;;;;;;;13.05;9.20;;;11.50;99.90;;;;;;4972916;28;20046;-86
2022/04/30 13:41:01;;;;;;;11.25;9.77;;;11.50;99.90;;;;;;4960554;28;20409;-80
2022/04/30 13:43:29;;;;;;;10.48;9.30;;;11.40;99.90;;;;;;4991411;28;20473;-82
2022/04/30 13:45:58;;;;;;;11.82;9.07;;;11.30;99.90;;;;;;5007921;28;20038;-80
2022/04/30 13:48:25;;;;;;;14.70;9.73;;;11.20;99.90;;;;;;5010195;28;20409;-78
2022/04/30 13:50:53;;;;;;;11.23;10.02;;;11.10;99.90;;;;;;4990429;28;20038;-82
2022/04/30 13:53:21;;;;;;;13.55;8.52;;;11.00;99.90;;;;;;4992024;28;20058;-83